YHE weather

Hope Airport
Hope, British Columbia, Canada

Public forecast

Using degrees Celsius for public forecast. Weather courtesy of forecast.io.

Current aviation weather report (METAR) for Hope Airport

Report is more than 2 hours old.

Retrieved 2019/11/15 04:41 UTC (4 hours ago):

CYHE 150441Z AUTO 09006KT 9SM -RA OVC085 08/05 A2999 RMK SLP158

Closest aviation forecast (TAF) to Hope Airport

Closest forecast is Abbotsford Airport, 39.6 nm (73.4 km) WSW. Retrieved 2019/11/15 06:42 UTC (2 hours ago):

TAF TAF CYXX 150538Z 1506/1606 34006KT P6SM SCT060 BKN100 OVC150 TEMPO 1506/1511 P6SM -RA BKN040 BECMG 1507/1509 05008KT FM151100 05008KT P6SM -RA SCT008 OVC025 TEMPO 1511/1516 3SM -RA BR BKN008 BECMG 1511/1513 20008KT FM151700 20015G25KT P6SM SCT015 OVC025 TEMPO 1517/1521 5SM -RA BR OVC015 FM152100 20012KT P6SM BKN025 TEMPO 1521/1606 4SM -SHRA BR BKN020 RMK NXT FCST BY 151200Z